Boise, ID (83705)

11:42 AM MST on January 30, 2015 (GMT -0700)
Pier Point | Change Station
CLOSE
Current Station
Personal Weather Station
Location: Boise, ID
Elevation: 2760 ft
Nearby Weather Stations

Elev 2760 ft 43.58 °N, 116.16 °W | Updated 9 minutes ago

Light Freezing Fog
Freezing Fog
37.4 °F
Feels Like 37 °F
N
0.0
Wind Variable Wind from South
Gusts 0.0 mph

Today
High -- | Low -- °F
--% Chance of Precip.
Yesterday
High -- | Low -- °F
Precip. -- in
8:03 AM 5:53 PM
Waxing Gibbous, 84% visible
Pressure 30.35 in
Visibility 0.2 miles
Clouds
Windchill 37 °F
Dew Point 34 °F
Humidity 86%
Rainfall 0.00 in
Snow Depth Not available.
UV Not available.
Pollen .30 out of 12
Air Quality Not available.
Flu Activity Not available.
METAR KBOI 301753Z 00000KT M1/4SM R10R/0800V1000FT FZFG VV002 M01/M01 A3029 RMK AO2 SLP276 T10061006 11006 21022 51005

More Conditions Fewer Conditions

Pressure 30.35 in
Visibility 0.2 miles
Clouds
Windchill 37 °F
Dew Point 34 °F
Humidity 86%
Rainfall 0.00 in
Snow Depth Not available.
UV Not available.
Pollen .30 out of 12
Air Quality Not available.
Flu Activity Not available.
METAR KBOI 301753Z 00000KT M1/4SM R10R/0800V1000FT FZFG VV002 M01/M01 A3029 RMK AO2 SLP276 T10061006 11006 21022 51005

More Conditions Fewer Conditions

10-Day Weather Forecast

Almanac

Astronomy

Jan. 30, 2015 Rise Set
Actual Time
Civil Twilight
Nautical Twilight
Astronomical Twilight
Moon
Length of Visible Light
Length of Day
Tomorrow will be .
, % of the Moon is Illuminated

Today's Extremes

State Highs State Lows

Community

WunderPhotos

Upload Photos

1,791,859 photos uploaded!

WunderBlogs® & News

Nearby

Air Quality

  Air Quality AQ Index Pollutant
Not available.

Snow Depth

Station Depth Elevation

Earthquake Activity

City Distance Mag. Time & Date
Minimum magnitude displayed is 2.5.

Coastal Water Temperatures

Place Temperature

Nearby Weather Stations